Terminal Aerodrome Forecast
Issued by NWS

Home | Current Version | Previous Version | Graphics & Text | Print | Product List | Glossary On
Versions: 1 2 3 4 5 6 7 8 9 10 11 12 13 14 15 16 17
124
FTUS43 KIWX 270902 AAA
TAFSBN
TAF AMD
KSBN 270902Z 2709/2806 08004KT P6SM VCSH FEW040 BKN120
     FM271200 13006KT P6SM -SHRA VCTS BKN040CB OVC120
      TEMPO 2713/2716 3SM SHRA OVC030
     FM271900 17008KT P6SM BKN050 OVC150
     FM272300 17006KT P6SM BKN100=

USA.gov is the U.S. government's official web portal to all federal, state and local government web resources and services.